sensor_id;sensor_type;location;lat;lon;timestamp;P1;durP1;ratioP1;P2;durP2;ratioP2
3841;SDS011;1936;47.074;15.336;2022-10-12T00:01:10;33.57;;;19.00;;
3841;SDS011;1936;47.074;15.336;2022-10-12T00:03:14;25.23;;;16.67;;
3841;SDS011;1936;47.074;15.336;2022-10-12T00:05:17;22.37;;;16.03;;
3841;SDS011;1936;47.074;15.336;2022-10-12T00:07:20;33.30;;;17.60;;
3841;SDS011;1936;47.074;15.336;2022-10-12T00:09:24;30.40;;;19.20;;
3841;SDS011;1936;47.074;15.336;2022-10-12T00:11:28;29.60;;;17.47;;
3841;SDS011;1936;47.074;15.336;2022-10-12T00:13:32;29.57;;;17.90;;
3841;SDS011;1936;47.074;15.336;2022-10-12T00:15:36;28.80;;;17.20;;
3841;SDS011;1936;47.074;15.336;2022-10-12T00:17:39;20.20;;;15.37;;
3841;SDS011;1936;47.074;15.336;2022-10-12T00:19:42;28.40;;;15.73;;
3841;SDS011;1936;47.074;15.336;2022-10-12T00:21:46;19.87;;;15.00;;
3841;SDS011;1936;47.074;15.336;2022-10-12T00:23:49;20.77;;;14.40;;
3841;SDS011;1936;47.074;15.336;2022-10-12T00:25:53;19.30;;;13.90;;
3841;SDS011;1936;47.074;15.336;2022-10-12T00:27:57;17.03;;;13.53;;
3841;SDS011;1936;47.074;15.336;2022-10-12T00:30:00;20.13;;;14.13;;
3841;SDS011;1936;47.074;15.336;2022-10-12T00:32:04;18.93;;;14.17;;
3841;SDS011;1936;47.074;15.336;2022-10-12T00:34:08;15.83;;;13.77;;
3841;SDS011;1936;47.074;15.336;2022-10-12T00:36:12;19.50;;;14.60;;
3841;SDS011;1936;47.074;15.336;2022-10-12T00:38:17;19.30;;;13.00;;
3841;SDS011;1936;47.074;15.336;2022-10-12T00:40:20;14.67;;;13.23;;
3841;SDS011;1936;47.074;15.336;2022-10-12T00:42:24;15.83;;;12.97;;
3841;SDS011;1936;47.074;15.336;2022-10-12T00:44:47;15.37;;;13.70;;
3841;SDS011;1936;47.074;15.336;2022-10-12T00:46:53;15.83;;;12.50;;
3841;SDS011;1936;47.074;15.336;2022-10-12T00:49:00;18.73;;;13.17;;
3841;SDS011;1936;47.074;15.336;2022-10-12T00:51:11;15.23;;;13.73;;
3841;SDS011;1936;47.074;15.336;2022-10-12T00:53:16;17.10;;;14.23;;
3841;SDS011;1936;47.074;15.336;2022-10-12T00:55:24;15.73;;;13.77;;
3841;SDS011;1936;47.074;15.336;2022-10-12T00:57:29;18.37;;;14.80;;
3841;SDS011;1936;47.074;15.336;2022-10-12T00:59:32;21.33;;;13.33;;
3841;SDS011;1936;47.074;15.336;2022-10-12T01:01:41;15.47;;;13.33;;
3841;SDS011;1936;47.074;15.336;2022-10-12T01:03:45;23.23;;;13.53;;
3841;SDS011;1936;47.074;15.336;2022-10-12T01:05:49;15.10;;;12.60;;
3841;SDS011;1936;47.074;15.336;2022-10-12T01:07:52;15.87;;;12.90;;
3841;SDS011;1936;47.074;15.336;2022-10-12T01:09:56;19.40;;;14.57;;
3841;SDS011;1936;47.074;15.336;2022-10-12T01:11:59;22.40;;;13.13;;
3841;SDS011;1936;47.074;15.336;2022-10-12T01:14:05;23.10;;;14.33;;
3841;SDS011;1936;47.074;15.336;2022-10-12T01:16:10;19.53;;;13.60;;
3841;SDS011;1936;47.074;15.336;2022-10-12T01:18:20;23.43;;;14.57;;
3841;SDS011;1936;47.074;15.336;2022-10-12T01:20:33;16.60;;;12.60;;
3841;SDS011;1936;47.074;15.336;2022-10-12T01:22:48;19.83;;;11.80;;
3841;SDS011;1936;47.074;15.336;2022-10-12T01:25:00;15.13;;;13.47;;
3841;SDS011;1936;47.074;15.336;2022-10-12T01:32:15;22.57;;;13.40;;
3841;SDS011;1936;47.074;15.336;2022-10-12T01:34:24;21.80;;;14.17;;
3841;SDS011;1936;47.074;15.336;2022-10-12T01:36:34;15.17;;;13.03;;
3841;SDS011;1936;47.074;15.336;2022-10-12T01:38:44;27.60;;;14.20;;
3841;SDS011;1936;47.074;15.336;2022-10-12T01:40:54;16.67;;;13.83;;
3841;SDS011;1936;47.074;15.336;2022-10-12T01:43:01;23.37;;;15.03;;
3841;SDS011;1936;47.074;15.336;2022-10-12T01:45:05;19.10;;;12.77;;
3841;SDS011;1936;47.074;15.336;2022-10-12T01:47:13;25.83;;;16.40;;
3841;SDS011;1936;47.074;15.336;2022-10-12T01:49:16;25.33;;;15.10;;
3841;SDS011;1936;47.074;15.336;2022-10-12T01:51:30;23.13;;;14.50;;
3841;SDS011;1936;47.074;15.336;2022-10-12T01:53:40;20.77;;;14.70;;
3841;SDS011;1936;47.074;15.336;2022-10-12T01:55:48;16.10;;;12.60;;
3841;SDS011;1936;47.074;15.336;2022-10-12T01:58:00;19.07;;;13.40;;
3841;SDS011;1936;47.074;15.336;2022-10-12T02:00:27;23.80;;;15.47;;
3841;SDS011;1936;47.074;15.336;2022-10-12T02:02:40;20.53;;;14.53;;
3841;SDS011;1936;47.074;15.336;2022-10-12T02:04:53;19.80;;;14.50;;
3841;SDS011;1936;47.074;15.336;2022-10-12T02:07:04;15.50;;;13.90;;
3841;SDS011;1936;47.074;15.336;2022-10-12T02:09:15;16.17;;;12.23;;
3841;SDS011;1936;47.074;15.336;2022-10-12T02:11:23;20.47;;;15.37;;
3841;SDS011;1936;47.074;15.336;2022-10-12T02:13:30;24.37;;;14.43;;
3841;SDS011;1936;47.074;15.336;2022-10-12T02:15:37;22.40;;;14.13;;
3841;SDS011;1936;47.074;15.336;2022-10-12T02:17:45;17.97;;;12.73;;
3841;SDS011;1936;47.074;15.336;2022-10-12T02:19:52;22.03;;;15.03;;
3841;SDS011;1936;47.074;15.336;2022-10-12T02:21:59;22.93;;;16.03;;
3841;SDS011;1936;47.074;15.336;2022-10-12T02:24:06;17.10;;;12.97;;
3841;SDS011;1936;47.074;15.336;2022-10-12T02:26:11;18.27;;;12.67;;
3841;SDS011;1936;47.074;15.336;2022-10-12T02:28:16;21.93;;;13.83;;
3841;SDS011;1936;47.074;15.336;2022-10-12T02:30:23;21.00;;;13.37;;
3841;SDS011;1936;47.074;15.336;2022-10-12T02:32:28;21.23;;;13.40;;
3841;SDS011;1936;47.074;15.336;2022-10-12T02:34:40;18.03;;;14.13;;
3841;SDS011;1936;47.074;15.336;2022-10-12T02:36:48;18.93;;;12.97;;
3841;SDS011;1936;47.074;15.336;2022-10-12T02:38:57;37.80;;;18.00;;
3841;SDS011;1936;47.074;15.336;2022-10-12T02:41:04;38.50;;;19.70;;
3841;SDS011;1936;47.074;15.336;2022-10-12T02:43:14;29.57;;;18.40;;
3841;SDS011;1936;47.074;15.336;2022-10-12T02:45:21;26.67;;;16.47;;
3841;SDS011;1936;47.074;15.336;2022-10-12T02:47:27;33.07;;;14.23;;
3841;SDS011;1936;47.074;15.336;2022-10-12T02:49:33;21.87;;;15.97;;
3841;SDS011;1936;47.074;15.336;2022-10-12T02:51:39;32.80;;;16.20;;
3841;SDS011;1936;47.074;15.336;2022-10-12T02:53:44;24.70;;;16.87;;
3841;SDS011;1936;47.074;15.336;2022-10-12T02:55:48;22.33;;;14.83;;
3841;SDS011;1936;47.074;15.336;2022-10-12T02:57:52;25.70;;;15.10;;
3841;SDS011;1936;47.074;15.336;2022-10-12T02:59:56;19.33;;;13.67;;
3841;SDS011;1936;47.074;15.336;2022-10-12T03:01:59;28.63;;;14.83;;
3841;SDS011;1936;47.074;15.336;2022-10-12T03:04:02;20.20;;;14.40;;
3841;SDS011;1936;47.074;15.336;2022-10-12T03:06:06;20.83;;;14.50;;
3841;SDS011;1936;47.074;15.336;2022-10-12T03:08:11;23.23;;;13.77;;
3841;SDS011;1936;47.074;15.336;2022-10-12T03:10:14;25.87;;;14.17;;
3841;SDS011;1936;47.074;15.336;2022-10-12T03:12:17;16.10;;;12.70;;
3841;SDS011;1936;47.074;15.336;2022-10-12T03:14:21;20.63;;;14.00;;
3841;SDS011;1936;47.074;15.336;2022-10-12T03:16:27;22.97;;;16.13;;
3841;SDS011;1936;47.074;15.336;2022-10-12T03:18:30;25.30;;;14.47;;
3841;SDS011;1936;47.074;15.336;2022-10-12T03:20:34;27.37;;;14.40;;
3841;SDS011;1936;47.074;15.336;2022-10-12T03:22:38;19.83;;;13.97;;
3841;SDS011;1936;47.074;15.336;2022-10-12T03:24:42;21.43;;;13.63;;
3841;SDS011;1936;47.074;15.336;2022-10-12T03:26:46;17.57;;;13.93;;
3841;SDS011;1936;47.074;15.336;2022-10-12T03:28:49;16.20;;;12.90;;
3841;SDS011;1936;47.074;15.336;2022-10-12T03:30:53;22.30;;;11.70;;
3841;SDS011;1936;47.074;15.336;2022-10-12T03:32:57;23.80;;;14.33;;
3841;SDS011;1936;47.074;15.336;2022-10-12T03:35:00;18.43;;;13.23;;
3841;SDS011;1936;47.074;15.336;2022-10-12T03:37:03;19.73;;;15.30;;
3841;SDS011;1936;47.074;15.336;2022-10-12T03:39:07;17.77;;;15.20;;
3841;SDS011;1936;47.074;15.336;2022-10-12T03:41:12;19.17;;;14.87;;
3841;SDS011;1936;47.074;15.336;2022-10-12T03:43:15;21.67;;;15.93;;
3841;SDS011;1936;47.074;15.336;2022-10-12T03:45:19;20.67;;;16.57;;
3841;SDS011;1936;47.074;15.336;2022-10-12T03:47:22;19.13;;;15.77;;
3841;SDS011;1936;47.074;15.336;2022-10-12T03:49:26;29.53;;;17.07;;
3841;SDS011;1936;47.074;15.336;2022-10-12T03:51:29;22.73;;;14.60;;
3841;SDS011;1936;47.074;15.336;2022-10-12T03:53:32;19.70;;;12.90;;
3841;SDS011;1936;47.074;15.336;2022-10-12T03:55:36;17.90;;;12.53;;
3841;SDS011;1936;47.074;15.336;2022-10-12T03:57:40;20.00;;;13.23;;
3841;SDS011;1936;47.074;15.336;2022-10-12T03:59:45;21.23;;;13.90;;
3841;SDS011;1936;47.074;15.336;2022-10-12T04:01:48;14.57;;;12.50;;
3841;SDS011;1936;47.074;15.336;2022-10-12T04:03:51;16.97;;;12.37;;
3841;SDS011;1936;47.074;15.336;2022-10-12T04:05:55;20.33;;;14.07;;
3841;SDS011;1936;47.074;15.336;2022-10-12T04:07:59;21.07;;;14.60;;
3841;SDS011;1936;47.074;15.336;2022-10-12T04:10:03;18.90;;;12.37;;
3841;SDS011;1936;47.074;15.336;2022-10-12T04:12:08;20.00;;;14.00;;
3841;SDS011;1936;47.074;15.336;2022-10-12T04:14:12;21.10;;;12.63;;
3841;SDS011;1936;47.074;15.336;2022-10-12T04:16:16;17.87;;;14.00;;
3841;SDS011;1936;47.074;15.336;2022-10-12T04:18:19;22.53;;;13.60;;
3841;SDS011;1936;47.074;15.336;2022-10-12T04:20:23;18.17;;;12.60;;
3841;SDS011;1936;47.074;15.336;2022-10-12T04:22:26;24.73;;;13.17;;
3841;SDS011;1936;47.074;15.336;2022-10-12T04:24:30;16.80;;;14.10;;
3841;SDS011;1936;47.074;15.336;2022-10-12T04:26:33;21.83;;;14.10;;
3841;SDS011;1936;47.074;15.336;2022-10-12T04:28:36;27.30;;;13.23;;
3841;SDS011;1936;47.074;15.336;2022-10-12T04:30:41;24.50;;;15.43;;
3841;SDS011;1936;47.074;15.336;2022-10-12T04:32:46;15.07;;;12.10;;
3841;SDS011;1936;47.074;15.336;2022-10-12T04:34:49;15.10;;;12.50;;
3841;SDS011;1936;47.074;15.336;2022-10-12T04:36:53;13.33;;;10.67;;
3841;SDS011;1936;47.074;15.336;2022-10-12T04:38:56;19.80;;;14.37;;
3841;SDS011;1936;47.074;15.336;2022-10-12T04:41:01;19.63;;;12.37;;
3841;SDS011;1936;47.074;15.336;2022-10-12T04:43:05;16.13;;;12.83;;
3841;SDS011;1936;47.074;15.336;2022-10-12T04:45:08;27.83;;;15.10;;
3841;SDS011;1936;47.074;15.336;2022-10-12T04:47:13;17.53;;;12.33;;
3841;SDS011;1936;47.074;15.336;2022-10-12T04:49:17;16.80;;;12.03;;
3841;SDS011;1936;47.074;15.336;2022-10-12T04:51:21;18.83;;;13.50;;
3841;SDS011;1936;47.074;15.336;2022-10-12T04:53:25;21.73;;;12.83;;
3841;SDS011;1936;47.074;15.336;2022-10-12T04:55:28;17.97;;;13.30;;
3841;SDS011;1936;47.074;15.336;2022-10-12T04:57:31;29.13;;;13.63;;
3841;SDS011;1936;47.074;15.336;2022-10-12T04:59:35;22.57;;;13.77;;
3841;SDS011;1936;47.074;15.336;2022-10-12T05:01:38;19.47;;;13.90;;
3841;SDS011;1936;47.074;15.336;2022-10-12T05:03:42;13.97;;;11.90;;
3841;SDS011;1936;47.074;15.336;2022-10-12T05:05:46;16.33;;;13.10;;
3841;SDS011;1936;47.074;15.336;2022-10-12T05:07:49;27.43;;;12.57;;
3841;SDS011;1936;47.074;15.336;2022-10-12T05:09:52;17.23;;;11.20;;
3841;SDS011;1936;47.074;15.336;2022-10-12T05:11:56;16.10;;;12.17;;
3841;SDS011;1936;47.074;15.336;2022-10-12T05:13:59;14.50;;;13.00;;
3841;SDS011;1936;47.074;15.336;2022-10-12T05:16:05;18.23;;;13.43;;
3841;SDS011;1936;47.074;15.336;2022-10-12T05:18:08;15.23;;;11.50;;
3841;SDS011;1936;47.074;15.336;2022-10-12T05:20:14;19.80;;;12.87;;
3841;SDS011;1936;47.074;15.336;2022-10-12T05:22:17;15.30;;;10.70;;
3841;SDS011;1936;47.074;15.336;2022-10-12T05:24:21;18.37;;;12.67;;
3841;SDS011;1936;47.074;15.336;2022-10-12T05:26:24;19.33;;;12.57;;
3841;SDS011;1936;47.074;15.336;2022-10-12T05:28:27;15.97;;;12.50;;
3841;SDS011;1936;47.074;15.336;2022-10-12T05:30:31;22.80;;;13.70;;
3841;SDS011;1936;47.074;15.336;2022-10-12T05:32:35;15.00;;;12.10;;
3841;SDS011;1936;47.074;15.336;2022-10-12T05:34:39;18.70;;;13.90;;
3841;SDS011;1936;47.074;15.336;2022-10-12T05:36:44;16.30;;;13.23;;
3841;SDS011;1936;47.074;15.336;2022-10-12T05:38:47;16.00;;;14.17;;
3841;SDS011;1936;47.074;15.336;2022-10-12T05:40:50;16.53;;;13.17;;
3841;SDS011;1936;47.074;15.336;2022-10-12T05:42:59;15.10;;;11.70;;
3841;SDS011;1936;47.074;15.336;2022-10-12T05:45:04;21.03;;;15.33;;
3841;SDS011;1936;47.074;15.336;2022-10-12T05:47:08;19.00;;;12.60;;
3841;SDS011;1936;47.074;15.336;2022-10-12T05:49:11;18.60;;;13.93;;
3841;SDS011;1936;47.074;15.336;2022-10-12T05:51:15;23.27;;;12.40;;
3841;SDS011;1936;47.074;15.336;2022-10-12T05:53:20;15.77;;;13.00;;
3841;SDS011;1936;47.074;15.336;2022-10-12T05:55:24;25.13;;;13.00;;
3841;SDS011;1936;47.074;15.336;2022-10-12T05:57:27;15.17;;;13.10;;
3841;SDS011;1936;47.074;15.336;2022-10-12T05:59:30;17.43;;;12.43;;
3841;SDS011;1936;47.074;15.336;2022-10-12T06:01:34;14.00;;;12.40;;
3841;SDS011;1936;47.074;15.336;2022-10-12T06:03:37;17.77;;;12.93;;
3841;SDS011;1936;47.074;15.336;2022-10-12T06:05:41;21.50;;;14.50;;
3841;SDS011;1936;47.074;15.336;2022-10-12T06:07:45;13.87;;;11.40;;
3841;SDS011;1936;47.074;15.336;2022-10-12T06:09:50;18.17;;;13.57;;
3841;SDS011;1936;47.074;15.336;2022-10-12T06:11:53;15.30;;;11.77;;
3841;SDS011;1936;47.074;15.336;2022-10-12T06:13:57;19.50;;;12.50;;
3841;SDS011;1936;47.074;15.336;2022-10-12T06:16:00;20.23;;;12.53;;
3841;SDS011;1936;47.074;15.336;2022-10-12T06:18:03;19.40;;;15.13;;
3841;SDS011;1936;47.074;15.336;2022-10-12T06:20:07;16.80;;;12.03;;
3841;SDS011;1936;47.074;15.336;2022-10-12T06:22:11;24.33;;;14.70;;
3841;SDS011;1936;47.074;15.336;2022-10-12T06:24:15;24.63;;;13.83;;
3841;SDS011;1936;47.074;15.336;2022-10-12T06:26:19;14.63;;;12.60;;
3841;SDS011;1936;47.074;15.336;2022-10-12T06:28:23;20.93;;;13.80;;
3841;SDS011;1936;47.074;15.336;2022-10-12T06:30:27;20.20;;;14.50;;
3841;SDS011;1936;47.074;15.336;2022-10-12T06:32:30;17.60;;;14.00;;
3841;SDS011;1936;47.074;15.336;2022-10-12T06:34:33;18.03;;;13.47;;
3841;SDS011;1936;47.074;15.336;2022-10-12T06:36:37;19.30;;;13.10;;
3841;SDS011;1936;47.074;15.336;2022-10-12T06:38:40;18.47;;;13.37;;
3841;SDS011;1936;47.074;15.336;2022-10-12T06:40:43;20.00;;;13.30;;
3841;SDS011;1936;47.074;15.336;2022-10-12T06:42:48;21.30;;;12.57;;
3841;SDS011;1936;47.074;15.336;2022-10-12T06:44:57;14.53;;;11.77;;
3841;SDS011;1936;47.074;15.336;2022-10-12T06:47:01;16.13;;;12.50;;
3841;SDS011;1936;47.074;15.336;2022-10-12T06:49:05;14.90;;;10.23;;
3841;SDS011;1936;47.074;15.336;2022-10-12T06:51:08;15.93;;;12.00;;
3841;SDS011;1936;47.074;15.336;2022-10-12T06:53:11;14.90;;;11.60;;
3841;SDS011;1936;47.074;15.336;2022-10-12T06:55:15;13.97;;;12.10;;
3841;SDS011;1936;47.074;15.336;2022-10-12T06:57:18;15.57;;;11.53;;
3841;SDS011;1936;47.074;15.336;2022-10-12T06:59:23;23.97;;;11.63;;
3841;SDS011;1936;47.074;15.336;2022-10-12T07:01:27;13.87;;;12.03;;
3841;SDS011;1936;47.074;15.336;2022-10-12T07:03:31;11.80;;;10.33;;
3841;SDS011;1936;47.074;15.336;2022-10-12T07:05:34;19.33;;;11.60;;
3841;SDS011;1936;47.074;15.336;2022-10-12T07:07:37;19.80;;;11.60;;
3841;SDS011;1936;47.074;15.336;2022-10-12T07:09:41;15.83;;;9.40;;
3841;SDS011;1936;47.074;15.336;2022-10-12T07:11:44;13.97;;;10.03;;
3841;SDS011;1936;47.074;15.336;2022-10-12T07:13:48;11.40;;;9.77;;
3841;SDS011;1936;47.074;15.336;2022-10-12T07:15:53;12.73;;;10.97;;
3841;SDS011;1936;47.074;15.336;2022-10-12T07:17:56;15.57;;;10.17;;
3841;SDS011;1936;47.074;15.336;2022-10-12T07:20:00;10.90;;;9.80;;
3841;SDS011;1936;47.074;15.336;2022-10-12T07:22:03;13.03;;;9.50;;
3841;SDS011;1936;47.074;15.336;2022-10-12T07:24:07;16.80;;;10.17;;
3841;SDS011;1936;47.074;15.336;2022-10-12T07:26:15;14.03;;;10.47;;
3841;SDS011;1936;47.074;15.336;2022-10-12T07:28:19;19.07;;;11.40;;
3841;SDS011;1936;47.074;15.336;2022-10-12T07:30:23;15.77;;;10.10;;
3841;SDS011;1936;47.074;15.336;2022-10-12T07:32:28;13.80;;;9.80;;
3841;SDS011;1936;47.074;15.336;2022-10-12T07:34:31;18.20;;;9.90;;
3841;SDS011;1936;47.074;15.336;2022-10-12T07:36:35;12.23;;;8.70;;
3841;SDS011;1936;47.074;15.336;2022-10-12T07:38:59;15.47;;;8.20;;
3841;SDS011;1936;47.074;15.336;2022-10-12T07:41:03;20.47;;;10.67;;
3841;SDS011;1936;47.074;15.336;2022-10-12T07:43:06;15.23;;;10.10;;
3841;SDS011;1936;47.074;15.336;2022-10-12T07:45:16;13.90;;;8.80;;
3841;SDS011;1936;47.074;15.336;2022-10-12T07:47:20;12.20;;;9.60;;
3841;SDS011;1936;47.074;15.336;2022-10-12T07:49:25;14.33;;;10.03;;
3841;SDS011;1936;47.074;15.336;2022-10-12T07:51:28;13.43;;;10.40;;
3841;SDS011;1936;47.074;15.336;2022-10-12T07:53:32;22.90;;;9.23;;
3841;SDS011;1936;47.074;15.336;2022-10-12T07:55:36;12.67;;;9.40;;
3841;SDS011;1936;47.074;15.336;2022-10-12T07:57:40;17.27;;;9.57;;
3841;SDS011;1936;47.074;15.336;2022-10-12T07:59:44;15.23;;;10.10;;
3841;SDS011;1936;47.074;15.336;2022-10-12T08:01:48;18.87;;;10.43;;
3841;SDS011;1936;47.074;15.336;2022-10-12T08:03:52;11.47;;;9.47;;
3841;SDS011;1936;47.074;15.336;2022-10-12T08:06:08;20.93;;;10.30;;
3841;SDS011;1936;47.074;15.336;2022-10-12T08:08:11;12.27;;;10.17;;
3841;SDS011;1936;47.074;15.336;2022-10-12T08:10:19;10.13;;;8.60;;
3841;SDS011;1936;47.074;15.336;2022-10-12T08:12:22;11.43;;;7.97;;
3841;SDS011;1936;47.074;15.336;2022-10-12T08:14:25;10.50;;;7.70;;
3841;SDS011;1936;47.074;15.336;2022-10-12T08:16:29;9.40;;;8.50;;
3841;SDS011;1936;47.074;15.336;2022-10-12T08:18:34;12.90;;;9.40;;
3841;SDS011;1936;47.074;15.336;2022-10-12T08:20:38;14.60;;;9.53;;
3841;SDS011;1936;47.074;15.336;2022-10-12T08:22:43;12.60;;;9.80;;
3841;SDS011;1936;47.074;15.336;2022-10-12T08:24:46;11.60;;;8.80;;
3841;SDS011;1936;47.074;15.336;2022-10-12T08:26:49;10.60;;;8.03;;
3841;SDS011;1936;47.074;15.336;2022-10-12T08:28:58;14.23;;;9.30;;
3841;SDS011;1936;47.074;15.336;2022-10-12T08:31:06;10.93;;;9.40;;
3841;SDS011;1936;47.074;15.336;2022-10-12T08:33:10;13.80;;;9.07;;
3841;SDS011;1936;47.074;15.336;2022-10-12T08:35:14;19.47;;;10.30;;
3841;SDS011;1936;47.074;15.336;2022-10-12T08:37:18;14.80;;;10.80;;
3841;SDS011;1936;47.074;15.336;2022-10-12T08:39:23;12.63;;;9.63;;
3841;SDS011;1936;47.074;15.336;2022-10-12T08:41:28;12.77;;;9.53;;
3841;SDS011;1936;47.074;15.336;2022-10-12T08:43:37;14.60;;;9.87;;
3841;SDS011;1936;47.074;15.336;2022-10-12T08:45:45;17.23;;;11.90;;
3841;SDS011;1936;47.074;15.336;2022-10-12T08:47:52;15.77;;;9.70;;
3841;SDS011;1936;47.074;15.336;2022-10-12T08:49:56;12.00;;;9.80;;
3841;SDS011;1936;47.074;15.336;2022-10-12T08:52:02;15.37;;;9.90;;
3841;SDS011;1936;47.074;15.336;2022-10-12T08:54:07;13.50;;;10.33;;
3841;SDS011;1936;47.074;15.336;2022-10-12T08:56:16;16.80;;;10.80;;
3841;SDS011;1936;47.074;15.336;2022-10-12T08:58:21;12.40;;;10.13;;
3841;SDS011;1936;47.074;15.336;2022-10-12T09:00:33;18.13;;;11.00;;
3841;SDS011;1936;47.074;15.336;2022-10-12T09:02:42;16.47;;;11.13;;
3841;SDS011;1936;47.074;15.336;2022-10-12T09:04:58;16.07;;;10.67;;
3841;SDS011;1936;47.074;15.336;2022-10-12T09:07:05;19.93;;;11.67;;
3841;SDS011;1936;47.074;15.336;2022-10-12T09:09:18;16.20;;;11.20;;
3841;SDS011;1936;47.074;15.336;2022-10-12T09:11:47;16.67;;;10.50;;
3841;SDS011;1936;47.074;15.336;2022-10-12T09:14:04;12.20;;;10.37;;
3841;SDS011;1936;47.074;15.336;2022-10-12T09:16:13;20.93;;;10.50;;
3841;SDS011;1936;47.074;15.336;2022-10-12T09:18:20;15.60;;;11.00;;
3841;SDS011;1936;47.074;15.336;2022-10-12T09:20:25;14.30;;;10.43;;
3841;SDS011;1936;47.074;15.336;2022-10-12T09:22:31;24.47;;;12.27;;
3841;SDS011;1936;47.074;15.336;2022-10-12T09:24:36;19.10;;;13.07;;
3841;SDS011;1936;47.074;15.336;2022-10-12T09:26:40;13.10;;;11.50;;
3841;SDS011;1936;47.074;15.336;2022-10-12T09:28:49;13.90;;;12.50;;
3841;SDS011;1936;47.074;15.336;2022-10-12T09:30:58;13.30;;;11.93;;
3841;SDS011;1936;47.074;15.336;2022-10-12T09:33:06;16.10;;;12.57;;
3841;SDS011;1936;47.074;15.336;2022-10-12T09:35:16;19.60;;;11.60;;
3841;SDS011;1936;47.074;15.336;2022-10-12T09:37:20;16.10;;;11.90;;
3841;SDS011;1936;47.074;15.336;2022-10-12T09:39:27;18.80;;;12.27;;
3841;SDS011;1936;47.074;15.336;2022-10-12T09:41:34;12.07;;;10.87;;
3841;SDS011;1936;47.074;15.336;2022-10-12T09:43:38;12.17;;;10.87;;
3841;SDS011;1936;47.074;15.336;2022-10-12T09:45:43;12.23;;;9.83;;
3841;SDS011;1936;47.074;15.336;2022-10-12T09:50:09;20.00;;;11.97;;
3841;SDS011;1936;47.074;15.336;2022-10-12T09:52:13;13.13;;;10.40;;
3841;SDS011;1936;47.074;15.336;2022-10-12T09:54:18;13.33;;;10.47;;
3841;SDS011;1936;47.074;15.336;2022-10-12T09:56:23;17.00;;;10.27;;
3841;SDS011;1936;47.074;15.336;2022-10-12T09:58:31;14.60;;;10.60;;
3841;SDS011;1936;47.074;15.336;2022-10-12T10:00:37;12.70;;;10.30;;
3841;SDS011;1936;47.074;15.336;2022-10-12T10:02:47;14.27;;;10.40;;
3841;SDS011;1936;47.074;15.336;2022-10-12T10:04:52;11.43;;;9.77;;
3841;SDS011;1936;47.074;15.336;2022-10-12T10:07:10;12.37;;;9.60;;
3841;SDS011;1936;47.074;15.336;2022-10-12T10:09:27;11.97;;;9.67;;
3841;SDS011;1936;47.074;15.336;2022-10-12T10:11:32;12.30;;;8.77;;
3841;SDS011;1936;47.074;15.336;2022-10-12T10:13:35;18.00;;;8.73;;
3841;SDS011;1936;47.074;15.336;2022-10-12T10:15:41;8.77;;;7.57;;
3841;SDS011;1936;47.074;15.336;2022-10-12T10:17:48;12.37;;;7.00;;
3841;SDS011;1936;47.074;15.336;2022-10-12T10:19:57;9.57;;;7.80;;
3841;SDS011;1936;47.074;15.336;2022-10-12T10:22:03;13.27;;;7.80;;
3841;SDS011;1936;47.074;15.336;2022-10-12T10:24:17;10.30;;;8.03;;
3841;SDS011;1936;47.074;15.336;2022-10-12T10:26:22;13.30;;;7.33;;
3841;SDS011;1936;47.074;15.336;2022-10-12T10:28:27;9.27;;;6.60;;
3841;SDS011;1936;47.074;15.336;2022-10-12T10:30:30;8.77;;;7.70;;
3841;SDS011;1936;47.074;15.336;2022-10-12T10:32:41;9.97;;;7.47;;
3841;SDS011;1936;47.074;15.336;2022-10-12T10:34:46;9.50;;;8.27;;
3841;SDS011;1936;47.074;15.336;2022-10-12T10:36:50;10.60;;;8.47;;
3841;SDS011;1936;47.074;15.336;2022-10-12T10:38:56;17.03;;;8.40;;
3841;SDS011;1936;47.074;15.336;2022-10-12T10:41:03;13.50;;;8.93;;
3841;SDS011;1936;47.074;15.336;2022-10-12T10:43:15;14.33;;;10.23;;
3841;SDS011;1936;47.074;15.336;2022-10-12T10:45:23;12.40;;;9.40;;
3841;SDS011;1936;47.074;15.336;2022-10-12T10:47:29;14.20;;;10.23;;
3841;SDS011;1936;47.074;15.336;2022-10-12T10:49:35;13.57;;;10.43;;
3841;SDS011;1936;47.074;15.336;2022-10-12T10:51:47;15.37;;;10.00;;
3841;SDS011;1936;47.074;15.336;2022-10-12T10:53:52;15.33;;;10.43;;
3841;SDS011;1936;47.074;15.336;2022-10-12T10:55:58;13.23;;;10.37;;
3841;SDS011;1936;47.074;15.336;2022-10-12T10:58:05;14.17;;;10.27;;
3841;SDS011;1936;47.074;15.336;2022-10-12T11:00:21;14.83;;;9.07;;
3841;SDS011;1936;47.074;15.336;2022-10-12T11:02:43;15.23;;;9.00;;
3841;SDS011;1936;47.074;15.336;2022-10-12T11:04:51;21.03;;;8.63;;
3841;SDS011;1936;47.074;15.336;2022-10-12T11:07:02;13.27;;;10.27;;
3841;SDS011;1936;47.074;15.336;2022-10-12T11:09:10;11.13;;;8.63;;
3841;SDS011;1936;47.074;15.336;2022-10-12T11:11:15;16.10;;;10.43;;
3841;SDS011;1936;47.074;15.336;2022-10-12T11:13:22;13.80;;;9.83;;
3841;SDS011;1936;47.074;15.336;2022-10-12T11:15:30;15.90;;;10.30;;
3841;SDS011;1936;47.074;15.336;2022-10-12T11:17:37;18.33;;;9.40;;
3841;SDS011;1936;47.074;15.336;2022-10-12T11:19:46;17.57;;;10.20;;
3841;SDS011;1936;47.074;15.336;2022-10-12T11:21:56;15.80;;;10.20;;
3841;SDS011;1936;47.074;15.336;2022-10-12T11:24:04;14.70;;;9.87;;
3841;SDS011;1936;47.074;15.336;2022-10-12T11:26:13;11.33;;;8.73;;
3841;SDS011;1936;47.074;15.336;2022-10-12T11:28:21;13.80;;;8.47;;
3841;SDS011;1936;47.074;15.336;2022-10-12T11:30:29;14.80;;;11.00;;
3841;SDS011;1936;47.074;15.336;2022-10-12T11:32:41;17.77;;;11.37;;
3841;SDS011;1936;47.074;15.336;2022-10-12T11:34:47;14.77;;;9.90;;
3841;SDS011;1936;47.074;15.336;2022-10-12T11:36:51;12.87;;;10.13;;
3841;SDS011;1936;47.074;15.336;2022-10-12T11:39:19;14.40;;;10.40;;
3841;SDS011;1936;47.074;15.336;2022-10-12T11:41:29;13.80;;;9.63;;
3841;SDS011;1936;47.074;15.336;2022-10-12T11:43:38;18.90;;;11.30;;
3841;SDS011;1936;47.074;15.336;2022-10-12T11:45:43;12.33;;;8.73;;
3841;SDS011;1936;47.074;15.336;2022-10-12T11:47:51;13.70;;;9.13;;
3841;SDS011;1936;47.074;15.336;2022-10-12T11:49:56;15.13;;;10.20;;
3841;SDS011;1936;47.074;15.336;2022-10-12T11:52:02;21.50;;;11.20;;
3841;SDS011;1936;47.074;15.336;2022-10-12T11:54:13;12.43;;;9.90;;
3841;SDS011;1936;47.074;15.336;2022-10-12T11:56:21;13.37;;;9.80;;
3841;SDS011;1936;47.074;15.336;2022-10-12T11:58:27;10.70;;;9.60;;
3841;SDS011;1936;47.074;15.336;2022-10-12T12:00:54;16.97;;;8.97;;
3841;SDS011;1936;47.074;15.336;2022-10-12T12:03:08;20.23;;;10.23;;
3841;SDS011;1936;47.074;15.336;2022-10-12T12:05:20;17.50;;;9.57;;
3841;SDS011;1936;47.074;15.336;2022-10-12T12:07:39;8.93;;;8.03;;
3841;SDS011;1936;47.074;15.336;2022-10-12T12:09:47;13.00;;;9.07;;
3841;SDS011;1936;47.074;15.336;2022-10-12T12:11:53;13.93;;;8.67;;
3841;SDS011;1936;47.074;15.336;2022-10-12T12:16:48;20.80;;;9.87;;
3841;SDS011;1936;47.074;15.336;2022-10-12T12:21:18;11.77;;;8.10;;
3841;SDS011;1936;47.074;15.336;2022-10-12T12:23:23;12.10;;;7.27;;
3841;SDS011;1936;47.074;15.336;2022-10-12T12:25:28;11.60;;;8.47;;
3841;SDS011;1936;47.074;15.336;2022-10-12T12:27:36;15.17;;;9.70;;
3841;SDS011;1936;47.074;15.336;2022-10-12T12:29:40;8.40;;;6.93;;
3841;SDS011;1936;47.074;15.336;2022-10-12T12:31:52;9.07;;;8.17;;
3841;SDS011;1936;47.074;15.336;2022-10-12T12:34:00;12.47;;;7.43;;
3841;SDS011;1936;47.074;15.336;2022-10-12T12:36:06;16.43;;;8.60;;
3841;SDS011;1936;47.074;15.336;2022-10-12T12:38:18;17.10;;;10.33;;
3841;SDS011;1936;47.074;15.336;2022-10-12T12:40:24;10.87;;;9.00;;
3841;SDS011;1936;47.074;15.336;2022-10-12T12:42:28;12.87;;;8.60;;
3841;SDS011;1936;47.074;15.336;2022-10-12T12:44:37;17.70;;;7.83;;